• Join FlightAware (Why Join?)
  • Login
  • US Flag 
10:20AM EDT


 

Airport Tracker/Info


-or-


 

Live Flight TrackerFlight Track Log ✈ AMF707 ✈ 08-Jul-2013 ✈ KSUS - KBED

Flight Track Log - Related Links

Times and Time Zones

All times are in EDT time to prevent confusion due to time zone crossing. See the AMF707 flight status page for this flight to view local times or setup timezone preferences in your user account.

Time Position Orientation Groundspeed Altitude Reporting Facility
EDT Latitude Longitude Course Direction KTS MPH feet Rate Location/Type
11:59AM 38.6667 -90.6833 322° Northwest 167 192 1,500  Level Gateway (St. Louis) TRACON
12:00PM 38.7000 -90.7167 322° Northwest 211 243 3,000 1,440 Climbing Gateway (St. Louis) TRACON
12:01PM 38.7297 -90.7208 354° North 193 222 3,800 1,320 Climbing Kansas City Center
12:02PM 38.7775 -90.6953 23° Northeast 211 243 5,200 1,200 Climbing Kansas City Center
12:03PM 38.8233 -90.6503 37° Northeast 207 238 6,300 900 Climbing Kansas City Center
12:04PM 38.8808 -90.5872 40° Northeast 221 254 7,100 360 Climbing Kansas City Center
12:05PM 38.9386 -90.5311 37° Northeast 250 288 7,100 180 Level Kansas City Center
12:06PM 38.9900 -90.4561 49° Northeast 273 314 7,500 780 Climbing Kansas City Center
12:07PM 39.0297 -90.3850 54° Northeast 252 290 8,800 1,080 Climbing Kansas City Center
12:08PM 39.0700 -90.3200 51° Northeast 238 274 9,800 960 Climbing Kansas City Center
12:09PM 39.1050 -90.2506 57° Northeast 232 267 10,900 960 Climbing Kansas City Center
12:10PM 39.1428 -90.1831 54° Northeast 232 267 11,800 1,440 Climbing Kansas City Center
12:11PM 39.1811 -90.1069 57° Northeast 215 247 13,900 1,560 Climbing Kansas City Center
12:12PM 39.2067 -90.0500 60° Northeast 191 220 15,100 960 Climbing Kansas City Center
12:13PM 39.2158 -89.9853 80° East 188 216 16,000 780 Climbing Kansas City Center
12:14PM 39.2258 -89.9194 79° East 189 217 16,800 720 Climbing Kansas City Center
12:15PM 39.2333 -89.8494 82° East 193 222 17,600 660 Climbing Kansas City Center
12:16PM 39.2436 -89.7806 79° East 197 227 18,200 660 Climbing Kansas City Center
12:17PM 39.2586 -89.6967 77° East 198 228 19,000 360 Climbing Kansas City Center
12:18PM 39.2694 -89.6200 80° East 210 242 19,000  Level Kansas City Center
12:19PM 39.2825 -89.5328 79° East 237 273 19,100  Climbing Kansas City Center
12:20PM 39.2992 -89.4428 77° East 253 291 19,000 -60 Descending Kansas City Center
12:21PM 39.3158 -89.3503 77° East 261 300 19,000  Level Kansas City Center
12:23PM 39.3342 -89.2575 76° East 265 305 19,000  Level Kansas City Center
12:24PM 39.3569 -89.1453 75° East 269 310 19,000  Level Kansas City Center
12:25PM 39.3867 -89.0572 66° East 268 308 19,000  Level Kansas City Center
12:26PM 39.4119 -88.9694 70° East 263 303 19,000  Level Kansas City Center
12:27PM 39.4367 -88.8847 69° East 265 305 19,000  Level Kansas City Center
12:28PM 39.4625 -88.7944 70° East 267 307 19,000  Level Kansas City Center
12:29PM 39.4925 -88.6892 70° East 263 303 19,000  Level Kansas City Center
12:30PM 39.5181 -88.6000 70° East 263 303 19,000  Level Kansas City Center
12:31PM 39.5417 -88.5139 70° East 267 307 19,000  Level Kansas City Center
12:32PM 39.5717 -88.4075 70° East 264 304 19,000  Level Kansas City Center
12:33PM 39.5958 -88.3178 71° East 263 303 19,000  Level Kansas City Center
12:34PM 39.6222 -88.2264 69° East 265 305 19,000  Level Kansas City Center
12:35PM 39.6494 -88.1375 68° East 264 304 19,000  Level Kansas City Center
12:36PM 39.6742 -88.0569 68° East 266 306 19,000  Level Indianapolis Center
12:37PM 39.7044 -87.9703 66° East 265 305 19,000  Level Indianapolis Center
12:38PM 39.7281 -87.8817 71° East 263 303 19,000  Level Indianapolis Center
12:39PM 39.7553 -87.7931 68° East 263 303 19,000  Level Indianapolis Center
12:40PM 39.7872 -87.6875 68° East 262 302 19,000  Level Indianapolis Center
12:41PM 39.8142 -87.5994 68° East 263 303 19,000  Level Indianapolis Center
12:42PM 39.8428 -87.5150 66° East 258 297 19,100 180 Climbing Indianapolis Center
12:43PM 39.8719 -87.4361 64° Northeast 248 285 19,400 240 Climbing Indianapolis Center
12:44PM 39.8983 -87.3603 66° East 236 272 19,600 180 Climbing Indianapolis Center
12:45PM 39.9219 -87.2825 68° East 233 268 19,800 120 Climbing Indianapolis Center
12:46PM 39.9461 -87.2047 68° East 232 267 19,900 240 Climbing Indianapolis Center
12:47PM 39.9739 -87.1056 70° East 242 278 20,300 240 Climbing Indianapolis Center
12:48PM 39.9986 -87.0267 68° East 239 275 20,500 240 Climbing Indianapolis Center
12:49PM 40.0247 -86.9475 67° East 238 274 20,800 180 Climbing Indianapolis Center
12:50PM 40.0500 -86.8653 68° East 241 277 20,900 60 Climbing Indianapolis Center
12:51PM 40.0750 -86.7839 68° East 242 278 21,000  Climbing Indianapolis Center
12:52PM 40.1011 -86.6983 68° East 249 287 21,000  Level Indianapolis Center
12:53PM 40.1322 -86.5939 69° East 254 292 21,000  Level Indianapolis Center
12:54PM 40.1497 -86.5425 66° East 259 298 21,000  Level Chicago Center
12:55PM 40.1775 -86.4547 67° East 260 299 21,000  Level Chicago Center
12:56PM 40.2050 -86.3672 68° East 260 299 21,000  Level Chicago Center
12:57PM 40.2322 -86.2786 68° East 262 302 21,000  Level Chicago Center
12:58PM 40.2589 -86.1886 69° East 265 305 21,000  Level Chicago Center
12:59PM 40.2944 -86.0811 67° East 268 308 21,000  Level Chicago Center
01:00PM 40.3239 -85.9906 67° East 271 312 21,100  Climbing Chicago Center
01:01PM 40.3542 -85.9003 66° East 271 312 21,000 -60 Descending Chicago Center
01:02PM 40.3850 -85.8114 65° Northeast 271 312 21,000  Level Chicago Center
01:03PM 40.4169 -85.7219 65° Northeast 272 313 21,000  Level Chicago Center
01:04PM 40.4467 -85.6333 66° East 269 310 21,000  Level Chicago Center
01:05PM 40.4792 -85.5225 69° East 274 315 21,000  Level Chicago Center
01:06PM 40.5050 -85.4319 69° East 269 310 21,000  Level Chicago Center
01:07PM 40.5319 -85.3400 69° East 270 311 21,000  Level Chicago Center
01:09PM 40.5575 -85.2469 70° East 272 313 21,000  Level Chicago Center
01:10PM 40.5842 -85.1553 69° East 271 312 21,000  Level Chicago Center
01:11PM 40.6094 -85.0636 70° East 268 308 21,000  Level Chicago Center
01:12PM 40.6331 -84.9500 75° East 270 311 21,000  Level Chicago Center
01:13PM 40.6553 -84.8561 73° East 268 308 21,000  Level Chicago Center
01:14PM 40.6789 -84.7647 71° East 265 305 21,000  Level Chicago Center
01:15PM 40.7017 -84.6731 72° East 264 304 21,000  Level Chicago Center
01:16PM 40.7239 -84.5800 72° East 267 307 21,000  Level Chicago Center
01:17PM 40.7478 -84.4861 71° East 268 308 21,100  Climbing Chicago Center
01:18PM 40.7744 -84.3731 73° East 270 311 21,000  Descending Chicago Center
01:19PM 40.7972 -84.2806 72° East 269 310 21,100  Climbing Chicago Center
01:20PM 40.8217 -84.1881 71° East 267 307 21,100 -60 Level Chicago Center
01:21PM 40.8447 -84.0972 71° East 265 305 21,000  Descending Chicago Center
01:22PM 40.8678 -84.0078 71° East 262 302 21,100  Climbing Chicago Center
01:23PM 40.8894 -83.9314 69° East 260 299 21,100  Level Cleveland Center
01:23PM 40.9011 -83.8719 75° East 262 302 21,100  Level Indianapolis Center
01:24PM 40.9242 -83.7786 72° East 264 304 21,100  Level Indianapolis Center
01:25PM 40.9478 -83.6839 72° East 267 307 21,100 -60 Level Indianapolis Center
01:26PM 40.9719 -83.5903 71° East 265 305 21,000  Descending Indianapolis Center
01:27PM 40.9950 -83.4861 74° East 280 322 21,100  Climbing Indianapolis Center
01:28PM 41.0250 -83.3711 71° East 280 322 21,100  Level Indianapolis Center
01:30PM 41.0492 -83.2736 72° East 277 319 21,100  Level Indianapolis Center
01:31PM 41.0725 -83.1761 72° East 277 319 21,100  Level Indianapolis Center
01:32PM 41.1056 -83.0633 69° East 279 321 21,100  Level Cleveland Center
01:33PM 41.1303 -82.9678 71° East 274 315 21,100  Level Cleveland Center
01:34PM 41.1553 -82.8722 71° East 274 315 21,100  Level Cleveland Center
01:35PM 41.1822 -82.7792 69° East 269 310 21,100  Level Cleveland Center
01:36PM 41.2044 -82.6972 70° East 264 304 21,100  Level Cleveland Center
01:37PM 41.2314 -82.6014 69° East 269 310 21,100  Level Cleveland Center
01:38PM 41.2539 -82.5056 73° East 264 304 21,100  Level Cleveland Center
01:39PM 41.2803 -82.4094 70° East 269 310 21,100  Level Cleveland Center
01:40PM 41.3047 -82.3189 70° East 264 304 21,100  Level Cleveland Center
01:41PM 41.3292 -82.2256 71° East 264 304 21,100  Level Cleveland Center
01:42PM 41.3575 -82.1239 70° East 264 304 21,100  Level Cleveland Center
01:43PM 41.3858 -82.0278 69° East 271 312 21,100  Level Cleveland Center
01:44PM 41.4078 -81.9369 72° East 260 299 21,100  Level Cleveland Center
01:45PM 41.4339 -81.8461 69° East 260 299 21,100  Level Cleveland Center
01:46PM 41.4578 -81.7522 71° East 265 305 21,100  Level Cleveland Center
01:47PM 41.4794 -81.6694 71° East 265 305 21,100  Level Cleveland Center
01:48PM 41.5053 -81.5786 69° East 265 305 21,100  Level Cleveland Center
01:49PM 41.5333 -81.4847 68° East 265 305 21,100  Level Cleveland Center
01:50PM 41.5569 -81.3961 70° East 265 305 21,100  Level Cleveland Center
01:51PM 41.5803 -81.3050 71° East 260 299 21,100  Level Cleveland Center
01:52PM 41.6081 -81.2025 70° East 260 299 21,100 -60 Level Cleveland Center
01:53PM 41.6336 -81.1136 69° East 260 299 21,000 -120 Descending Cleveland Center
01:54PM 41.6736 -81.0364 55° Northeast 255 293 20,900  Descending Cleveland Center
01:55PM 41.7092 -80.9558 59° Northeast 255 293 21,000  Climbing Cleveland Center
01:56PM 41.7303 -80.8642 73° East 255 293 21,000  Level Cleveland Center
01:57PM 41.7492 -80.7697 75° East 255 293 21,000  Level Cleveland Center
01:58PM 41.7661 -80.6778 76° East 255 293 21,000  Level Cleveland Center
01:59PM 41.7850 -80.5831 75° East 255 293 21,000  Level Cleveland Center
02:00PM 41.8014 -80.4994 75° East 255 293 21,000  Level Cleveland Center
02:01PM 41.8203 -80.4075 75° East 260 299 21,000  Level Cleveland Center
02:02PM 41.8389 -80.3128 75° East 260 299 21,000  Level Cleveland Center
02:03PM 41.8572 -80.2208 75° East 260 299 21,000  Level Cleveland Center
02:04PM 41.8756 -80.1258 75° East 260 299 21,100  Climbing Cleveland Center
02:05PM 41.8942 -80.0336 75° East 255 293 21,000 -60 Descending Cleveland Center
02:06PM 41.9144 -79.9414 74° East 255 293 21,000  Level Cleveland Center
02:07PM 41.9347 -79.8492 74° East 255 293 21,000  Level Cleveland Center
02:08PM 41.9550 -79.7567 74° East 255 293 21,000  Level Cleveland Center
02:09PM 41.9731 -79.6644 75° East 255 293 21,000  Level Cleveland Center
02:10PM 41.9911 -79.5747 75° East 250 288 21,000  Level Cleveland Center
02:11PM 42.0089 -79.4850 75° East 250 288 21,000  Level Cleveland Center
02:12PM 42.0289 -79.3953 73° East 245 282 21,000  Level Cleveland Center
02:13PM 42.0486 -79.2997 74° East 245 282 21,000  Level Cleveland Center
02:14PM 42.0706 -79.2125 71° East 245 282 21,000  Level Cleveland Center
02:15PM 42.0903 -79.1197 74° East 245 282 21,000  Level Cleveland Center
02:16PM 42.1100 -79.0297 74° East 245 282 21,000  Level Cleveland Center
02:17PM 42.1294 -78.9369 74° East 245 282 21,000  Level Cleveland Center
02:18PM 42.1492 -78.8467 74° East 245 282 21,000  Level Cleveland Center
02:19PM 42.1686 -78.7594 73° East 245 282 21,000  Level Cleveland Center
02:20PM 42.1961 -78.6522 71° East 250 288 21,000  Level Cleveland Center
02:21PM 42.2194 -78.5617 71° East 250 288 21,000  Level Cleveland Center
02:22PM 42.2408 -78.4711 72° East 250 288 21,000  Level Cleveland Center
02:23PM 42.2664 -78.3861 68° East 250 288 21,000  Level Cleveland Center
02:24PM 42.3000 -78.3036 61° Northeast 250 288 21,000  Level Cleveland Center
02:25PM 42.3339 -78.2208 61° Northeast 245 282 21,000  Level Cleveland Center
02:26PM 42.3675 -78.1381 61° Northeast 245 282 21,000  Level Cleveland Center
02:27PM 42.4033 -78.0525 60° Northeast 245 282 21,000  Level Cleveland Center
02:28PM 42.4389 -77.9722 59° Northeast 245 282 21,100  Climbing Cleveland Center
02:29PM 42.4744 -77.8864 61° Northeast 250 288 21,000  Descending Cleveland Center
02:30PM 42.5144 -77.8056 56° Northeast 250 288 21,100  Climbing Cleveland Center
02:31PM 42.5497 -77.7225 60° Northeast 255 293 21,000 -60 Descending Cleveland Center
02:32PM 42.5872 -77.6361 59° Northeast 260 299 21,000  Level Cleveland Center
02:33PM 42.6142 -77.5472 68° East 254 292 21,100  Climbing Cleveland Center
02:34PM 42.6200 -77.4539 85° East 249 287 21,000  Descending Cleveland Center
02:35PM 42.6175 -77.3639 92° East 254 292 21,100  Climbing Cleveland Center
02:36PM 42.6178 -77.1950 90° East 253 291 21,000  Descending Boston Center
02:37PM 42.6197 -77.0992 88° East 253 291 21,100  Climbing Boston Center
02:38PM 42.6297 -77.0039 82° East 253 291 21,000  Descending Boston Center
02:39PM 42.6397 -76.9117 82° East 253 291 21,100  Climbing Boston Center
02:40PM 42.6539 -76.8136 79° East 253 291 21,000  Descending Boston Center
02:41PM 42.6700 -76.7189 77° East 253 291 21,100  Climbing Boston Center
02:42PM 42.6861 -76.6211 77° East 253 291 21,100  Level Boston Center
02:43PM 42.7022 -76.5231 77° East 253 291 21,100  Level Boston Center
02:44PM 42.7183 -76.4253 77° East 258 297 21,100  Level Boston Center
02:45PM 42.7361 -76.3275 76° East 258 297 21,100 -60 Level Boston Center
02:46PM 42.7497 -76.2350 79° East 258 297 21,000 -60 Descending Boston Center
02:47PM 42.7592 -76.1394 82° East 258 297 21,000  Level Boston Center
02:48PM 42.7622 -76.0406 88° East 258 297 21,000  Level Boston Center
02:49PM 42.7614 -75.9414 91° East 258 297 21,000  Level Boston Center
02:51PM 42.7567 -75.8194 93° East 258 297 21,000  Level Boston Center
02:52PM 42.7556 -75.7175 91° East 258 297 21,100  Climbing Boston Center
02:53PM 42.7542 -75.6158 91° East 263 303 21,000 -60 Descending Boston Center
02:54PM 42.7528 -75.5167 91° East 268 308 21,000  Level Boston Center
02:55PM 42.7511 -75.4178 91° East 268 308 21,000  Level Boston Center
02:56PM 42.7517 -75.3186 90° East 263 303 21,000  Level Boston Center
02:57PM 42.7478 -75.2194 93° East 263 303 21,000  Level Boston Center
02:58PM 42.7425 -75.0919 93° East 263 303 21,000  Level Boston Center
02:59PM 42.7344 -74.9928 96° East 263 303 21,000  Level Boston Center
03:00PM 42.7281 -74.8964 95° East 258 297 21,000  Level Boston Center
03:01PM 42.7197 -74.8000 97° East 258 297 21,000  Level Boston Center
03:02PM 42.7072 -74.7061 100° East 258 297 21,000  Level Boston Center
03:03PM 42.6925 -74.6067 101° East 258 297 21,000  Level Boston Center
03:04PM 42.6775 -74.5131 102° East 258 297 21,000  Level Boston Center
03:05PM 42.6625 -74.4164 102° East 258 297 21,000  Level Boston Center
03:06PM 42.6494 -74.3231 101° East 258 297 21,000  Level Boston Center
03:07PM 42.6447 -74.2239 94° East 258 297 21,000  Level Boston Center
03:08PM 42.6481 -74.1450 87° East 258 297 21,000  Level Boston Center
03:09PM 42.6583 -74.0211 84° East 253 291 21,000  Level Boston Center
03:10PM 42.6594 -73.9281 89° East 258 297 21,100  Climbing Boston Center
03:11PM 42.6631 -73.8094 88° East 252 290 21,000 -60 Descending Boston Center
03:12PM 42.6619 -73.7275 91° East 252 290 21,000  Level Boston Center
03:13PM 42.6611 -73.6175 91° East 252 290 21,000 -120 Level Boston Center
03:14PM 42.6619 -73.5158 89° East 257 296 20,800 -600 Descending Boston Center
03:15PM 42.6589 -73.4114 92° East 263 303 19,900 -900 Descending Boston Center
03:16PM 42.6536 -73.3011 94° East 281 323 19,000 -480 Descending Boston Center
03:17PM 42.6544 -73.1825 89° East 291 335 19,000 -60 Level Boston Center
03:18PM 42.6569 -73.0894 88° East 285 328 18,900 -780 Descending Boston Center
03:19PM 42.6617 -72.9822 87° East 280 322 17,500 -1,320 Descending Boston Center
03:20PM 42.6561 -72.8578 93° East 286 329 16,300 -1,080 Descending Boston Center
03:21PM 42.6333 -72.7506 106° East 292 336 15,400 -660 Descending Boston Center
03:22PM 42.6044 -72.6544 112° Southeast 299 344 15,000 -720 Descending Boston Center
03:23PM 42.5711 -72.5472 113° Southeast 294 338 14,000 -1,080 Descending Boston Center
03:24PM 42.5339 -72.4428 116° Southeast 300 345 12,900 -1,080 Descending Boston Center
03:25PM 42.4983 -72.3386 115° Southeast 300 345 11,900 -1,080 Descending Boston Center
03:26PM 42.4897 -72.2206 96° East 300 345 10,800 -1,200 Descending Boston Center
03:27PM 42.4917 -72.1164 89° East 305 351 9,600 -1,200 Descending Boston Center
03:28PM 42.4911 -71.9953 90° East 299 344 8,400 -1,320 Descending Boston Center
03:29PM 42.4950 -71.8994 87° East 289 333 7,000 -1,200 Descending Boston Center
03:30PM 42.5028 -71.7867 85° East 282 325 6,000 -1,140 Descending Boston Center
03:31PM 42.5147 -71.6964 80° East 269 310 4,800 -960 Descending Boston Center
03:32PM 42.5167 -71.6167 88° East 227 261 4,200 -660 Descending KA90
03:33PM 42.5167 -71.5333 90° East 207 238 3,700 -660 Descending KA90
03:34PM 42.5000 -71.4667 109° East 182 209 3,000 -900 Descending KA90
03:35PM 42.4833 -71.4000 109° East 158 182 1,900 -840 Descending KA90
03:36PM 42.4833 -71.3667 90° East 123 142 1,300 -660 Descending KA90
03:37PM 42.4833 -71.3167 90° East 119 137 700 1,500 Descending KA90
03:39PM 42.4628 -71.2328 108° East 118 136 6,000 1,620 Climbing Boston Center
03:40PM 42.4561 -71.1906 102° East 118 136 6,000  Level Boston Center
03:41PM 42.4514 -71.1486 99° East 118 136 6,000  Level Boston Center
03:42PM 42.4514 -71.1486 216° Southwest 118 136 6,000  Level Boston Center
03:45PM 42.4667 -71.2833 279° West  Level FlightAware Approximate
03:52PM 42.4699 -71.2890 279° West  Level Estimated
03:53PM 42.4667 -71.2833 279° West  Level FlightAware Approximate